Lanark, IL

1:36 PM CDT on September 17, 2014 (GMT -0500)
Carroll County | Change Station
CLOSE
Current Station
Personal Weather Station
Location: Lanark, IL
Elevation: 879 ft
Nearby Weather Stations

Elev 879 ft 42.10 °N, 89.83 °W | Updated 18 hours ago

Partly Cloudy
Partly Cloudy
66 °F
Feels Like 66 °F
N
5
Wind Variable Wind from SW
Gusts 6 mph

Today
High -- | Low -- °F
--% Chance of Precip.
Yesterday
High -- | Low -- °F
Precip. -- in
6:41 AM 7:05 PM
Waning Crescent, 34% visible
Pressure 30.01 in
Visibility 10.0 miles
Clouds Scattered Clouds 4000 ft
Dew Point 49 °F
Humidity 54%
Rainfall 0.02 in
Snow Depth Not available.
UV 6 out of 12
Pollen 5.10 out of 12
Air Quality Not available.
Flu Activity Not available.
METAR KSFY 171815Z AUTO 22005KT 10SM SCT040 21/09 A3001 RMK AO2 T02080093

More Conditions Fewer Conditions

Pressure 30.01 in
Visibility 10.0 miles
Clouds Scattered Clouds 4000 ft
Dew Point 49 °F
Humidity 54%
Rainfall 0.02 in
Snow Depth Not available.
UV 6 out of 12
Pollen 5.10 out of 12
Air Quality Not available.
Flu Activity Not available.
METAR KSFY 171815Z AUTO 22005KT 10SM SCT040 21/09 A3001 RMK AO2 T02080093

More Conditions Fewer Conditions

10-Day Weather Forecast

Almanac

Astronomy

Sep. 17, 2014 Rise Set
Actual Time 6:41 AM CDT 7:05 PM CDT
Civil Twilight 6:13 AM CDT 7:33 PM CDT
Nautical Twilight 5:40 AM CDT 8:06 PM CDT
Astronomical Twilight 5:06 AM CDT 8:40 PM CDT
Moon 12:37 AM CDT 3:19 PM CDT
Length of Visible Light 13h 19m
Length of Day
12h 23m
Tomorrow will be 2m 49s shorter.
Waning Crescent, 34% of the Moon is Illuminated
Today
Waning Crescent
Sep 24
New
Oct 1
First Quarter
Oct 8
Full
Oct 15
Last Quarter

Today's Extremes

State Highs State Lows

Community

WunderPhotos

Upload Photos

1,754,127 photos uploaded!

WunderBlogs® & News

Nearby

Snow Depth

Station Depth Elevation
No new snow has been reported.

Earthquake Activity

City Distance Mag. Time & Date
No recent earthquake activity has been reported nearby.
Minimum magnitude displayed is 2.5.

Coastal Water Temperatures

Place Temperature
No Stations Reporting

Nearby Weather Stations